createdAt,value
2022-08-17T00:00:43.546Z,97598.09
2022-08-17T00:03:15.064Z,97593.63
2022-08-17T00:05:48.318Z,97592.81
2022-08-17T00:08:20.258Z,97592.34
2022-08-17T00:10:49.985Z,97589.78
2022-08-17T00:13:25.715Z,97592.94
2022-08-17T00:15:58.616Z,97594.44
2022-08-17T00:19:05.718Z,97588.06
2022-08-17T00:21:25.153Z,97583.47
2022-08-17T00:23:54.906Z,97589.91
2022-08-17T00:26:43.716Z,97584.00
2022-08-17T00:29:16.484Z,97588.00
2022-08-17T00:31:50.303Z,97580.44
2022-08-17T00:34:19.298Z,97589.50
2022-08-17T00:36:47.684Z,97579.34
2022-08-17T00:39:16.052Z,97573.94
2022-08-17T00:41:44.536Z,97570.22
2022-08-17T00:44:13.134Z,97572.22
2022-08-17T00:46:44.272Z,97576.00
2022-08-17T00:49:15.920Z,97572.28
2022-08-17T00:51:49.425Z,97569.50
2022-08-17T00:54:23.841Z,97573.47
2022-08-17T00:56:55.552Z,97568.72
2022-08-17T00:59:30.824Z,97567.25
2022-08-17T01:02:00.214Z,97570.19
2022-08-17T01:04:31.366Z,97576.78
2022-08-17T01:07:02.594Z,97572.22
2022-08-17T01:09:32.387Z,97570.94
2022-08-17T01:12:01.473Z,97565.81
2022-08-17T01:14:29.913Z,97573.88
2022-08-17T01:16:58.372Z,97565.34
2022-08-17T01:19:32.056Z,97565.03
2022-08-17T01:22:06.915Z,97558.47
2022-08-17T01:24:39.138Z,97563.25
2022-08-17T01:27:10.445Z,97564.25
2022-08-17T01:29:43.157Z,97563.09
2022-08-17T01:32:11.758Z,97563.63
2022-08-17T01:34:43.942Z,97569.56
2022-08-17T01:37:21.059Z,97580.41
2022-08-17T01:39:55.347Z,97581.53
2022-08-17T01:42:28.136Z,97582.03
2022-08-17T01:45:00.367Z,97578.94
2022-08-17T01:47:29.880Z,97572.03
2022-08-17T01:49:59.478Z,97577.31
2022-08-17T01:52:27.717Z,97576.00
2022-08-17T01:54:58.353Z,97583.53
2022-08-17T01:57:26.711Z,97581.38
2022-08-17T01:59:55.119Z,97579.56
2022-08-17T02:02:30.888Z,97572.69
2022-08-17T02:05:00.505Z,97572.38
2022-08-17T02:07:29.223Z,97575.31
2022-08-17T02:09:59.510Z,97585.03
2022-08-17T02:12:39.024Z,97586.16
2022-08-17T02:15:12.429Z,97585.47
2022-08-17T02:17:41.497Z,97586.66
2022-08-17T02:20:11.517Z,97585.97
2022-08-17T02:22:42.454Z,97589.09
2022-08-17T02:25:17.296Z,97585.16
2022-08-17T02:27:45.768Z,97583.03
2022-08-17T02:31:00.194Z,97589.09
2022-08-17T02:33:06.376Z,97583.84
2022-08-17T02:35:38.218Z,97582.22
2022-08-17T02:38:07.793Z,97567.59
2022-08-17T02:40:40.610Z,97582.84
2022-08-17T02:43:09.743Z,97588.41
2022-08-17T02:45:38.369Z,97582.53
2022-08-17T02:48:07.110Z,97578.09
2022-08-17T02:50:35.519Z,97579.91
2022-08-17T02:53:05.119Z,97587.09
2022-08-17T02:55:40.197Z,97590.72
2022-08-17T02:58:10.542Z,97586.47
2022-08-17T03:00:42.411Z,97582.16
2022-08-17T03:03:13.496Z,97586.59
2022-08-17T03:05:41.944Z,97593.00
2022-08-17T03:08:12.954Z,97591.34
2022-08-17T03:10:43.385Z,97589.72
2022-08-17T03:13:14.314Z,97591.69
2022-08-17T03:15:45.850Z,97583.16
2022-08-17T03:18:18.938Z,97587.75
2022-08-17T03:20:55.734Z,97592.91
2022-08-17T03:23:25.540Z,97586.34
2022-08-17T03:25:56.287Z,97585.03
2022-08-17T03:28:26.259Z,97593.25
2022-08-17T03:30:54.722Z,97596.31
2022-08-17T03:33:23.552Z,97599.44
2022-08-17T03:35:52.385Z,97599.31
2022-08-17T03:38:21.872Z,97596.19
2022-08-17T03:40:56.361Z,97607.28
2022-08-17T03:43:31.424Z,97605.25
2022-08-17T03:46:29.040Z,97612.47
2022-08-17T03:49:22.574Z,97620.81
2022-08-17T03:52:08.761Z,97618.66
2022-08-17T03:54:55.101Z,97618.97
2022-08-17T03:57:23.572Z,97616.19
2022-08-17T03:59:53.606Z,97619.97
2022-08-17T04:02:25.876Z,97613.22
2022-08-17T04:04:54.767Z,97621.22
2022-08-17T04:07:26.185Z,97618.56
2022-08-17T04:09:55.009Z,97624.63
2022-08-17T04:12:25.031Z,97626.59
2022-08-17T04:14:55.233Z,97632.94
2022-08-17T04:17:27.790Z,97634.41
2022-08-17T04:19:57.654Z,97641.00
2022-08-17T04:22:33.179Z,97639.94
2022-08-17T04:25:11.164Z,97638.78
2022-08-17T04:27:39.657Z,97650.59
2022-08-17T04:30:11.751Z,97649.13
2022-08-17T04:33:05.366Z,97649.25
2022-08-17T04:35:39.290Z,97649.91
2022-08-17T04:38:09.733Z,97649.13
2022-08-17T04:40:55.730Z,97656.81
2022-08-17T04:43:27.092Z,97665.19
2022-08-17T04:46:00.042Z,97673.03
2022-08-17T04:48:35.388Z,97666.00
2022-08-17T04:51:09.786Z,97663.91
2022-08-17T04:53:39.981Z,97668.16
2022-08-17T04:56:16.192Z,97671.63
2022-08-17T04:58:49.717Z,97669.00
2022-08-17T05:01:23.236Z,97661.84
2022-08-17T05:03:53.225Z,97662.91
2022-08-17T05:06:22.162Z,97668.44
2022-08-17T05:08:50.701Z,97674.38
2022-08-17T05:11:19.597Z,97688.59
2022-08-17T05:13:50.057Z,97691.53
2022-08-17T05:16:21.164Z,97689.28
2022-08-17T05:18:49.850Z,97690.84
2022-08-17T05:21:19.920Z,97691.91
2022-08-17T05:23:52.673Z,97688.69
2022-08-17T05:26:26.310Z,97680.91
2022-08-17T05:28:58.473Z,97672.16
2022-08-17T05:31:30.986Z,97678.88
2022-08-17T05:33:59.640Z,97685.47
2022-08-17T05:36:43.543Z,97692.94
2022-08-17T05:39:16.600Z,97691.28
2022-08-17T05:41:48.105Z,97685.91
2022-08-17T05:44:17.483Z,97682.97
2022-08-17T05:46:51.490Z,97676.00
2022-08-17T05:49:27.350Z,97675.38
2022-08-17T05:52:22.447Z,97677.22
2022-08-17T05:55:06.878Z,97684.28
2022-08-17T05:57:49.702Z,97692.13
2022-08-17T06:00:26.292Z,97695.75
2022-08-17T06:03:20.206Z,97699.00
2022-08-17T06:06:02.995Z,97689.88
2022-08-17T06:08:42.144Z,97703.66
2022-08-17T06:11:24.221Z,97707.78
2022-08-17T06:14:23.138Z,97717.28
2022-08-17T06:16:57.672Z,97721.81
2022-08-17T06:19:34.731Z,97722.34
2022-08-17T06:22:05.751Z,97729.03
2022-08-17T06:24:38.981Z,97728.06
2022-08-17T06:27:14.382Z,97735.91
2022-08-17T06:29:52.538Z,97733.66
2022-08-17T06:32:21.269Z,97731.41
2022-08-17T06:34:51.512Z,97727.50
2022-08-17T06:37:39.600Z,97723.28
2022-08-17T06:40:38.137Z,97729.84
2022-08-17T06:43:26.146Z,97727.25
2022-08-17T06:46:04.124Z,97738.88
2022-08-17T06:48:42.702Z,97755.31
2022-08-17T06:51:23.968Z,97754.84
2022-08-17T06:54:00.089Z,97754.34
2022-08-17T06:56:53.694Z,97745.66
2022-08-17T06:59:30.429Z,97740.13
2022-08-17T07:02:28.913Z,97727.38
2022-08-17T07:05:01.734Z,97731.69
2022-08-17T07:07:50.601Z,97720.56
2022-08-17T07:10:21.215Z,97713.53
2022-08-17T07:12:52.187Z,97718.66
2022-08-17T07:15:26.372Z,97724.41
2022-08-17T07:17:55.857Z,97717.69
2022-08-17T07:20:24.267Z,97720.50
2022-08-17T07:23:01.881Z,97721.03
2022-08-17T07:25:31.388Z,97715.09
2022-08-17T07:28:04.238Z,97707.72
2022-08-17T07:30:47.613Z,97708.91
2022-08-17T07:33:23.735Z,97708.25
2022-08-17T07:35:52.798Z,97711.88
2022-08-17T07:38:27.626Z,97714.38
2022-08-17T07:41:06.161Z,97709.78
2022-08-17T07:43:37.516Z,97713.56
2022-08-17T07:46:34.364Z,97710.75
2022-08-17T07:49:26.030Z,97718.81
2022-08-17T07:52:24.319Z,97711.41
2022-08-17T07:54:56.122Z,97724.38
2022-08-17T07:57:37.040Z,97732.59
2022-08-17T08:00:31.737Z,97727.31
2022-08-17T08:03:22.930Z,97735.38
2022-08-17T08:06:01.254Z,97739.00
2022-08-17T08:08:34.650Z,97741.44
2022-08-17T08:11:09.233Z,97741.13
2022-08-17T08:13:43.804Z,97742.78
2022-08-17T08:16:29.635Z,97754.44
2022-08-17T08:19:00.608Z,97751.16
2022-08-17T08:21:48.275Z,97753.06
2022-08-17T08:24:41.585Z,97764.44
2022-08-17T08:27:22.561Z,97758.34
2022-08-17T08:29:58.822Z,97756.06
2022-08-17T08:32:45.507Z,97754.56
2022-08-17T08:35:29.578Z,97757.50
2022-08-17T08:38:07.431Z,97754.88
2022-08-17T08:40:53.616Z,97761.78
2022-08-17T08:43:36.235Z,97769.53
2022-08-17T08:46:19.726Z,97773.78
2022-08-17T08:49:59.557Z,97770.00
2022-08-17T08:52:46.728Z,97769.69
2022-08-17T08:55:22.716Z,97769.97
2022-08-17T08:57:58.812Z,97775.56
2022-08-17T09:00:29.914Z,97773.59
2022-08-17T09:03:36.754Z,97779.47
2022-08-17T09:06:39.306Z,97781.97
2022-08-17T09:09:20.696Z,97774.88
2022-08-17T09:12:01.119Z,97782.59
2022-08-17T09:14:47.202Z,97784.09
2022-08-17T09:17:22.696Z,97779.44
2022-08-17T09:19:57.699Z,97773.22
2022-08-17T09:22:34.659Z,97775.50
2022-08-17T09:25:10.654Z,97773.72
2022-08-17T09:28:00.686Z,97770.22
2022-08-17T09:30:40.795Z,97775.34
2022-08-17T09:33:13.302Z,97789.31
2022-08-17T09:35:48.865Z,97783.88
2022-08-17T09:38:27.068Z,97797.19
2022-08-17T09:41:09.275Z,97799.16
2022-08-17T09:43:44.763Z,97802.09
2022-08-17T09:46:20.924Z,97798.47
2022-08-17T09:48:58.124Z,97804.22
2022-08-17T09:51:34.365Z,97815.59
2022-08-17T09:54:21.338Z,97810.34
2022-08-17T09:57:27.893Z,97818.19
2022-08-17T10:00:16.874Z,97795.50
2022-08-17T10:03:25.610Z,97791.41
2022-08-17T10:06:06.546Z,97790.56
2022-08-17T10:08:52.547Z,97800.78
2022-08-17T10:11:52.629Z,97799.78
2022-08-17T10:14:37.681Z,97807.53
2022-08-17T10:17:20.385Z,97809.94
2022-08-17T10:19:59.210Z,97824.41
2022-08-17T10:22:55.769Z,97829.47
2022-08-17T10:25:54.576Z,97816.28
2022-08-17T10:28:30.268Z,97826.34
2022-08-17T10:31:32.962Z,97812.53
2022-08-17T10:34:26.138Z,97829.31
2022-08-17T10:37:05.623Z,97832.63
2022-08-17T10:39:52.022Z,97835.06
2022-08-17T10:42:30.758Z,97843.59
2022-08-17T10:45:07.763Z,97847.91
2022-08-17T10:48:04.694Z,97848.53
2022-08-17T10:51:08.656Z,97863.00
2022-08-17T10:54:01.729Z,97865.66
2022-08-17T10:56:51.321Z,97858.56
2022-08-17T10:59:51.843Z,97866.47
2022-08-17T11:02:28.095Z,97853.28
2022-08-17T11:05:26.699Z,97853.28
2022-08-17T11:08:20.512Z,97879.97
2022-08-17T11:11:36.669Z,97873.50
2022-08-17T11:14:47.151Z,97879.41
2022-08-17T11:17:41.507Z,97892.38
2022-08-17T11:21:12.774Z,97884.16
2022-08-17T11:23:58.525Z,97890.59
2022-08-17T11:26:29.861Z,97888.81
2022-08-17T11:29:01.790Z,97891.13
2022-08-17T11:31:41.098Z,97885.75
2022-08-17T11:34:20.233Z,97876.69
2022-08-17T11:37:22.125Z,97891.53
2022-08-17T11:40:12.736Z,97903.75
2022-08-17T11:42:59.345Z,97905.75
2022-08-17T11:45:57.981Z,97901.78
2022-08-17T11:48:56.262Z,97906.22
2022-08-17T11:51:58.400Z,97904.06
2022-08-17T11:54:47.879Z,97909.00
2022-08-17T11:58:01.530Z,97901.09
2022-08-17T12:00:58.683Z,97904.06
2022-08-17T12:03:55.653Z,97894.34
2022-08-17T12:06:42.944Z,97881.19
2022-08-17T12:09:18.608Z,97878.69
2022-08-17T12:12:12.594Z,97867.84
2022-08-17T12:17:40.531Z,97863.56
2022-08-17T12:20:19.658Z,97856.16
2022-08-17T12:22:56.400Z,97852.31
2022-08-17T12:25:33.118Z,97849.78
2022-08-17T12:28:06.523Z,97846.78
2022-08-17T12:30:37.923Z,97848.91
2022-08-17T12:33:25.419Z,97842.28
2022-08-17T12:36:04.155Z,97835.03
2022-08-17T12:38:36.124Z,97820.84
2022-08-17T12:41:22.450Z,97819.50
2022-08-17T12:44:01.996Z,97822.47
2022-08-17T12:46:35.829Z,97812.56
2022-08-17T12:49:24.001Z,97811.59
2022-08-17T12:52:04.732Z,97805.94
2022-08-17T12:54:49.264Z,97800.16
2022-08-17T12:57:21.184Z,97791.88
2022-08-17T12:59:58.417Z,97791.19
2022-08-17T13:02:40.475Z,97781.44
2022-08-17T13:05:28.320Z,97758.81
2022-08-17T13:08:00.946Z,97759.84
2022-08-17T13:10:33.247Z,97756.78
2022-08-17T13:13:05.801Z,97743.06
2022-08-17T13:15:45.931Z,97754.00
2022-08-17T13:18:50.952Z,97741.16
2022-08-17T13:21:28.036Z,97747.84
2022-08-17T13:24:02.475Z,97760.50
2022-08-17T13:26:35.672Z,97762.38
2022-08-17T13:29:08.798Z,97756.31
2022-08-17T13:31:51.787Z,97755.81
2022-08-17T13:34:59.646Z,97749.53
2022-08-17T13:37:34.154Z,97749.34
2022-08-17T13:40:31.629Z,97743.50
2022-08-17T13:43:03.343Z,97727.72
2022-08-17T13:45:51.060Z,97729.22
2022-08-17T13:48:29.708Z,97737.00
2022-08-17T13:51:23.682Z,97739.91
2022-08-17T13:54:07.476Z,97730.53
2022-08-17T13:56:48.062Z,97733.78
2022-08-17T13:59:52.910Z,97731.94
2022-08-17T14:02:19.567Z,97723.75
2022-08-17T14:04:49.428Z,97725.38
2022-08-17T14:07:32.363Z,97717.50
2022-08-17T14:10:04.996Z,97712.31
2022-08-17T14:12:39.708Z,97703.53
2022-08-17T14:15:10.596Z,97694.13
2022-08-17T14:17:39.682Z,97692.88
2022-08-17T14:20:12.388Z,97687.34
2022-08-17T14:22:44.853Z,97678.16
2022-08-17T14:25:15.668Z,97666.44
2022-08-17T14:27:52.178Z,97659.78
2022-08-17T14:30:25.209Z,97667.53
2022-08-17T14:32:54.558Z,97672.19
2022-08-17T14:35:27.365Z,97675.38
2022-08-17T14:37:55.941Z,97681.53
2022-08-17T14:40:25.686Z,97674.63
2022-08-17T14:42:57.827Z,97673.34
2022-08-17T14:45:31.812Z,97677.06
2022-08-17T14:48:01.878Z,97675.16
2022-08-17T14:50:30.347Z,97672.41
2022-08-17T14:53:01.608Z,97664.75
2022-08-17T14:55:30.997Z,97674.97
2022-08-17T14:58:01.295Z,97667.44
2022-08-17T15:00:29.877Z,97684.22
2022-08-17T15:03:00.289Z,97688.72
2022-08-17T15:05:32.459Z,97689.00
2022-08-17T15:08:01.917Z,97680.00
2022-08-17T15:10:32.602Z,97674.50
2022-08-17T15:13:02.535Z,97683.16
2022-08-17T15:15:31.502Z,97675.81
2022-08-17T15:18:01.104Z,97681.94
2022-08-17T15:20:31.140Z,97685.16
2022-08-17T15:22:59.865Z,97676.78
2022-08-17T15:25:31.881Z,97670.03
2022-08-17T15:28:02.637Z,97673.09
2022-08-17T15:30:31.767Z,97665.31
2022-08-17T15:33:03.931Z,97669.03
2022-08-17T15:35:34.225Z,97657.69
2022-08-17T15:38:12.032Z,97651.78
2022-08-17T15:40:44.038Z,97654.34
2022-08-17T15:43:16.541Z,97653.25
2022-08-17T15:45:58.620Z,97648.88
2022-08-17T15:48:41.903Z,97650.84
2022-08-17T15:51:14.164Z,97662.78
2022-08-17T15:53:45.420Z,97657.47
2022-08-17T15:56:14.956Z,97654.19
2022-08-17T15:58:47.443Z,97653.63
2022-08-17T16:01:35.150Z,97651.47
2022-08-17T16:04:07.124Z,97649.50
2022-08-17T16:06:55.241Z,97647.06
2022-08-17T16:09:23.624Z,97648.84
2022-08-17T16:11:55.198Z,97651.13
2022-08-17T16:14:32.301Z,97648.50
2022-08-17T16:17:04.352Z,97651.59
2022-08-17T16:19:34.359Z,97640.38
2022-08-17T16:22:03.565Z,97640.19
2022-08-17T16:24:32.363Z,97623.84
2022-08-17T16:27:01.323Z,97627.03
2022-08-17T16:29:31.373Z,97626.25
2022-08-17T16:32:08.653Z,97628.31
2022-08-17T16:34:37.061Z,97625.06
2022-08-17T16:37:05.878Z,97627.09
2022-08-17T16:39:34.345Z,97622.38
2022-08-17T16:42:03.007Z,97617.06
2022-08-17T16:44:33.459Z,97623.25
2022-08-17T16:47:01.945Z,97621.47
2022-08-17T16:49:36.670Z,97630.53
2022-08-17T16:52:11.022Z,97634.28
2022-08-17T16:54:41.887Z,97636.69
2022-08-17T16:57:10.947Z,97628.78
2022-08-17T16:59:45.016Z,97623.72
2022-08-17T17:02:22.340Z,97625.00
2022-08-17T17:04:56.860Z,97612.34
2022-08-17T17:07:45.326Z,97602.78
2022-08-17T17:10:17.950Z,97606.47
2022-08-17T17:13:01.131Z,97607.31
2022-08-17T17:15:51.723Z,97613.91
2022-08-17T17:18:23.557Z,97625.16
2022-08-17T17:20:57.936Z,97632.16
2022-08-17T17:23:43.521Z,97629.91
2022-08-17T17:26:35.490Z,97618.72
2022-08-17T17:29:21.507Z,97632.63
2022-08-17T17:32:03.116Z,97623.22
2022-08-17T17:34:34.417Z,97630.59
2022-08-17T17:37:09.160Z,97626.34
2022-08-17T17:39:44.132Z,97619.19
2022-08-17T17:42:20.088Z,97610.66
2022-08-17T17:44:54.282Z,97619.25
2022-08-17T17:47:24.344Z,97607.81
2022-08-17T17:49:52.740Z,97608.22
2022-08-17T17:52:28.409Z,97598.88
2022-08-17T17:55:19.784Z,97605.00
2022-08-17T17:58:01.938Z,97602.16
2022-08-17T18:00:38.878Z,97602.97
2022-08-17T18:03:27.640Z,97609.50
2022-08-17T18:06:21.280Z,97607.88
2022-08-17T18:09:04.044Z,97611.34
2022-08-17T18:12:13.484Z,97609.94
2022-08-17T18:15:05.489Z,97600.75
2022-08-17T18:17:33.897Z,97601.56
2022-08-17T18:20:04.634Z,97608.72
2022-08-17T18:22:32.944Z,97605.84
2022-08-17T18:25:01.478Z,97614.00
2022-08-17T18:27:37.903Z,97612.78
2022-08-17T18:30:29.005Z,97620.88
2022-08-17T18:33:23.126Z,97617.44
2022-08-17T18:35:59.259Z,97620.66
2022-08-17T18:38:33.824Z,97615.97
2022-08-17T18:41:08.576Z,97629.22
2022-08-17T18:43:53.325Z,97624.94
2022-08-17T18:46:33.184Z,97628.34
2022-08-17T18:49:04.674Z,97633.44
2022-08-17T18:51:41.455Z,97638.50
2022-08-17T18:54:22.257Z,97635.03
2022-08-17T18:56:59.331Z,97635.44
2022-08-17T18:59:34.624Z,97635.38
2022-08-17T19:02:43.447Z,97637.59
2022-08-17T19:05:31.840Z,97643.09
2022-08-17T19:10:59.253Z,97657.31
2022-08-17T19:13:36.566Z,97661.75
2022-08-17T19:16:14.930Z,97672.28
2022-08-17T19:18:50.912Z,97681.56
2022-08-17T19:21:28.301Z,97685.16
2022-08-17T19:24:04.432Z,97672.75
2022-08-17T19:26:54.392Z,97666.00
2022-08-17T19:29:31.258Z,97671.88
2022-08-17T19:32:03.109Z,97671.66
2022-08-17T19:34:35.780Z,97669.53
2022-08-17T19:37:12.580Z,97666.28
2022-08-17T19:39:50.884Z,97666.28
2022-08-17T19:42:33.884Z,97668.28
2022-08-17T19:45:13.187Z,97654.88
2022-08-17T19:47:55.080Z,97664.22
2022-08-17T19:50:38.470Z,97654.38
2022-08-17T19:53:19.200Z,97645.84
2022-08-17T19:55:58.853Z,97637.47
2022-08-17T19:58:46.861Z,97632.34
2022-08-17T20:01:21.959Z,97641.03
2022-08-17T20:04:00.041Z,97644.59
2022-08-17T20:06:34.509Z,97644.16
2022-08-17T20:09:15.241Z,97645.94
2022-08-17T20:11:49.220Z,97639.41
2022-08-17T20:14:22.319Z,97640.97
2022-08-17T20:16:51.396Z,97650.91
2022-08-17T20:19:28.048Z,97649.00
2022-08-17T20:22:02.936Z,97664.84
2022-08-17T20:24:40.423Z,97666.03
2022-08-17T20:27:16.523Z,97663.59
2022-08-17T20:30:10.716Z,97666.53
2022-08-17T20:32:55.180Z,97670.34
2022-08-17T20:35:27.311Z,97671.09
2022-08-17T20:37:59.738Z,97668.63
2022-08-17T20:40:34.260Z,97671.03
2022-08-17T20:44:02.901Z,97666.31
2022-08-17T20:46:58.109Z,97665.50
2022-08-17T20:49:40.248Z,97666.88
2022-08-17T20:52:15.573Z,97674.16
2022-08-17T20:54:49.521Z,97677.59
2022-08-17T20:57:48.486Z,97689.09
2022-08-17T21:00:44.907Z,97693.91
2022-08-17T21:03:50.242Z,97700.75
2022-08-17T21:06:25.344Z,97707.03
2022-08-17T21:08:58.910Z,97708.06
2022-08-17T21:12:04.601Z,97724.13
2022-08-17T21:14:59.795Z,97719.13
2022-08-17T21:17:42.993Z,97713.38
2022-08-17T21:20:32.587Z,97712.53
2022-08-17T21:23:31.294Z,97714.22
2022-08-17T21:26:18.395Z,97719.94
2022-08-17T21:29:32.465Z,97714.81
2022-08-17T21:32:24.266Z,97718.81
2022-08-17T21:35:30.073Z,97708.63
2022-08-17T21:38:04.934Z,97721.56
2022-08-17T21:40:36.298Z,97727.47
2022-08-17T21:43:23.532Z,97733.13
2022-08-17T21:46:05.167Z,97734.63
2022-08-17T21:48:43.820Z,97740.09
2022-08-17T21:51:19.454Z,97748.00
2022-08-17T21:53:52.019Z,97752.09
2022-08-17T21:56:27.698Z,97754.41
2022-08-17T21:59:00.403Z,97768.00
2022-08-17T22:01:34.776Z,97776.44
2022-08-17T22:04:19.729Z,97781.25
2022-08-17T22:06:57.419Z,97786.03
2022-08-17T22:09:29.946Z,97796.13
2022-08-17T22:12:09.043Z,97805.41
2022-08-17T22:14:52.754Z,97821.38
2022-08-17T22:17:25.266Z,97823.72
2022-08-17T22:19:59.702Z,97837.09
2022-08-17T22:22:56.469Z,97850.97
2022-08-17T22:25:26.842Z,97856.25
2022-08-17T22:27:58.458Z,97879.31
2022-08-17T22:30:36.278Z,97888.28
2022-08-17T22:36:22.062Z,97902.19
2022-08-17T22:38:55.241Z,97914.72
2022-08-17T22:41:41.169Z,97917.00
2022-08-17T22:44:24.191Z,97934.34
2022-08-17T22:46:59.002Z,97941.25
2022-08-17T22:49:31.954Z,97937.66
2022-08-17T22:52:08.856Z,97940.28
2022-08-17T22:54:55.968Z,97934.84
2022-08-17T22:57:51.318Z,97937.66
2022-08-17T23:00:34.400Z,97944.56
2022-08-17T23:03:18.599Z,97939.97
2022-08-17T23:05:49.900Z,97948.00
2022-08-17T23:08:21.260Z,97951.94
2022-08-17T23:10:51.297Z,97960.00
2022-08-17T23:13:21.219Z,97968.31
2022-08-17T23:15:51.295Z,97967.34
2022-08-17T23:18:19.884Z,97972.91
2022-08-17T23:20:48.339Z,97971.19
2022-08-17T23:23:20.638Z,97964.78
2022-08-17T23:25:54.328Z,97963.16
2022-08-17T23:28:22.692Z,97967.09
2022-08-17T23:30:51.140Z,97958.81
2022-08-17T23:33:27.489Z,97958.44
2022-08-17T23:35:55.780Z,97958.22
2022-08-17T23:38:26.964Z,97963.47
2022-08-17T23:41:00.935Z,97962.13
2022-08-17T23:43:31.396Z,97957.69
2022-08-17T23:46:03.556Z,97967.72
2022-08-17T23:48:35.783Z,97966.97
2022-08-17T23:51:10.681Z,97966.38
2022-08-17T23:53:43.982Z,97960.81
2022-08-17T23:56:13.990Z,97960.81
2022-08-17T23:58:44.665Z,97955.34
